Flight Track Log - Related Links

Times and Time Zones

All times are in EDT time to prevent confusion due to time zone crossing. See the SWA407 flight status page for this flight to view local times or setup timezone preferences in your user account.

Time Position Orientation Groundspeed Altitude Reporting Facility
EDT Latitude Longitude Course Direction KTS MPH feet Rate Location/Type
Tue 03:02:20 PM 28.4000 -81.3000 150° Southeast 169 194 800  Level Orlando TRACON
Tue 03:03:20 PM 28.3500 -81.2667 150° Southeast 216 249 2,900 2,368 Climbing Orlando TRACON
Tue 03:04:14 PM 28.3333 -81.2167 111° Southeast 248 285 5,300 2,600 Climbing Orlando TRACON
Tue 03:05:20 PM 28.3500 -81.1333 77° East 286 329 8,100 2,727 Climbing Orlando TRACON
Tue 03:06:26 PM 28.4333 -81.1500 350° North 290 334 11,300 2,523 Climbing Orlando TRACON
Tue 03:08:16 PM 28.5897 -81.2092 342° North 335 386 15,500 2,647 Climbing Jacksonville Center
Tue 03:09:16 PM 28.6922 -81.2289 350° North 354 407 18,800 3,050 Climbing Jacksonville Center
Tue 03:10:16 PM 28.8008 -81.2436 353° North 372 428 21,600 2,600 Climbing Jacksonville Center
Tue 03:11:16 PM 28.9117 -81.2656 350° North 393 452 24,000 2,250 Climbing Jacksonville Center
Tue 03:12:16 PM 29.0267 -81.2825 353° North 405 466 26,100 2,000 Climbing Jacksonville Center
Tue 03:13:16 PM 29.1461 -81.3044 351° North 417 480 28,000 2,300 Climbing Jacksonville Center
Tue 03:14:16 PM 29.2653 -81.3286 350° North 427 491 30,700 2,450 Climbing Jacksonville Center
Tue 03:15:16 PM 29.3825 -81.3458 353° North 427 491 32,900 1,150 Climbing Jacksonville Center
Tue 03:16:16 PM 29.5100 -81.3678 351° North 427 491 33,000 50 Climbing Jacksonville Center
Tue 03:17:16 PM 29.6292 -81.3897 351° North 427 491 33,000  Level Jacksonville Center
Tue 03:18:16 PM 29.7483 -81.4069 353° North 427 491 33,000  Level Jacksonville Center
Tue 03:19:16 PM 29.8656 -81.4292 351° North 427 491 33,000 -150 Level Jacksonville Center
Tue 03:20:16 PM 29.9847 -81.4489 352° North 427 491 32,700 -1,050 Descending Jacksonville Center
Tue 03:21:16 PM 30.0978 -81.4689 351° North 427 491 30,900 -1,550 Descending Jacksonville Center
Tue 03:22:16 PM 30.2086 -81.4864 352° North 415 478 29,600 -1,200 Descending Jacksonville Center
Tue 03:23:16 PM 30.3278 -81.5089 351° North 413 475 28,500 -1,100 Descending Jacksonville Center
Tue 03:24:16 PM 30.4267 -81.5628 335° Northwest 418 481 27,400 -750 Descending Jacksonville Center
Tue 03:25:16 PM 30.5336 -81.6239 334° Northwest 423 487 27,000 -200 Descending Jacksonville Center
Tue 03:26:16 PM 30.6408 -81.6878 333° Northwest 428 493 27,000  Level Jacksonville Center
Tue 03:27:16 PM 30.7394 -81.7469 333° Northwest 418 481 27,000  Level Jacksonville Center
Tue 03:29:16 PM 30.9306 -81.8583 333° Northwest 388 447 27,000  Level Jacksonville Center
Tue 03:30:16 PM 31.0269 -81.9156 333° Northwest 388 447 27,000  Level Jacksonville Center
Tue 03:31:16 PM 31.1214 -81.9728 333° Northwest 388 447 27,000  Level Jacksonville Center
Tue 03:32:16 PM 31.2200 -82.0300 334° Northwest 388 447 27,000  Level Jacksonville Center
Tue 03:33:16 PM 31.3142 -82.0878 332° Northwest 388 447 27,000  Level Jacksonville Center
Tue 03:34:16 PM 31.4128 -82.1453 334° Northwest 388 447 27,000  Level Jacksonville Center
Tue 03:35:16 PM 31.5111 -82.2028 334° Northwest 388 447 27,000  Level Jacksonville Center
Tue 03:37:19 PM 31.7200 -82.3225 334° Northwest 397 457 27,000  Level Atlanta Center
Tue 03:38:19 PM 31.8106 -82.3867 329° Northwest 390 449 27,000  Level Atlanta Center
Tue 03:39:19 PM 31.8931 -82.4683 320° Northwest 385 443 27,000  Level Atlanta Center
Tue 03:40:19 PM 31.9733 -82.5478 320° Northwest 385 443 27,000  Level Atlanta Center
Tue 03:41:19 PM 32.0558 -82.6297 320° Northwest 379 436 27,000 -500 Level Atlanta Center
Tue 03:42:19 PM 32.1403 -82.7119 321° Northwest 385 443 26,000 -1,000 Descending Atlanta Center
Tue 03:43:19 PM 32.2225 -82.8014 317° Northwest 391 450 25,000 -500 Descending Atlanta Center
Tue 03:44:19 PM 32.3089 -82.8839 321° Northwest 391 450 25,000 -400 Level Atlanta Center
Tue 03:45:19 PM 32.3953 -82.9689 320° Northwest 391 450 24,200 -500 Descending Atlanta Center
Tue 03:46:19 PM 32.4753 -83.0514 319° Northwest 396 456 24,000 -100 Descending Atlanta Center
Tue 03:47:19 PM 32.5594 -83.1344 320° Northwest 396 456 24,000  Level Atlanta Center
Tue 03:48:19 PM 32.6414 -83.2197 319° Northwest 396 456 24,000  Level Atlanta Center
Tue 03:49:19 PM 32.7233 -83.3031 319° Northwest 396 456 24,000  Level Atlanta Center
Tue 03:50:19 PM 32.8072 -83.3889 319° Northwest 396 456 24,000 -750 Level Atlanta Center
Tue 03:51:19 PM 32.8892 -83.4747 319° Northwest 396 456 22,500 -1,800 Descending Atlanta Center
Tue 03:52:19 PM 32.9708 -83.5561 320° Northwest 396 456 20,400 -2,050 Descending Atlanta Center
Tue 03:53:19 PM 33.0483 -83.6397 318° Northwest 385 443 18,400 -1,900 Descending Atlanta Center
Tue 03:54:19 PM 33.1153 -83.7039 321° Northwest 363 418 16,600 -2,593 Descending Atlanta Center
Tue 03:54:40 PM 33.1500 -83.7333 325° Northwest 362 417 14,900 -1,926 Descending Atlanta TRACON
Tue 03:55:40 PM 33.2167 -83.8167 314° West 366 421 14,000 -650 Descending Atlanta TRACON
Tue 03:56:40 PM 33.2833 -83.9167 309° West 365 420 13,600 -606 Descending Atlanta TRACON
Tue 03:57:19 PM 33.3225 -83.9667 313° West 363 418 13,000 -970 Descending Atlanta Center
Tue 03:58:19 PM 33.3831 -84.0611 308° West 363 418 12,000 -500 Descending Atlanta Center
Tue 03:59:19 PM 33.4456 -84.1558 308° West 363 418 12,000  Level Atlanta Center
Tue 03:59:40 PM 33.4667 -84.2000 300° West 347 399 12,000  Level Atlanta TRACON
Tue 04:00:34 PM 33.5167 -84.2667 312° West 281 323 12,000 -500 Level Atlanta TRACON
Tue 04:01:40 PM 33.5500 -84.3500 296° West 258 297 11,000 -1,150 Descending Atlanta TRACON
Tue 04:02:34 PM 33.5500 -84.4333 270° West 262 302 9,700 -1,895 Descending Atlanta TRACON
Tue 04:03:34 PM 33.5500 -84.5000 270° West 243 280 7,400 -2,333 Descending Atlanta TRACON
Tue 04:04:40 PM 33.5500 -84.6000 270° West 232 267 4,800 -2,100 Descending Atlanta TRACON
Tue 04:05:34 PM 33.5833 -84.6333 320° Northwest 220 253 3,200 -947 Descending Atlanta TRACON
Tue 04:06:34 PM 33.6167 -84.6000 40° Northeast 196 226 3,000 -333 Descending Atlanta TRACON
Tue 04:07:40 PM 33.6333 -84.5500 68° East 171 197 2,500 -600 Descending Atlanta TRACON
Tue 04:08:34 PM 33.6333 -84.5000 90° East 143 165 1,800 -778 Descending Atlanta TRACON
Tue 04:10:00 PM 33.6367 -84.4279 64° Northeast  Level Estimated
Tue 04:17:00 PM 33.6367 -84.4279 64° Northeast  Level Estimated
Tue 04:18:00 PM 33.6367 -84.4279 64° Northeast  Level Estimated

Login

Don't have an account? Register now (free) for customized features, flight alerts, and more!